Aeroporto :
LOGIN :

Iscrizione | Disclaimer

   EN    FR    IT 

 










Sommario :    VFR   VFR Marginale   IFR   IFR Intensivo   IFR Molto Intensivo
Visibilità : 
Base nubi : 
>= 8 km
>= 3000ft
5 / 8 km
1000 / 3000 ft
1500m / 5 km
500 / 1000 ft
800 / 1500m
200 / 500 ft
< 800m
< 200 ft
Simboli :   Temporali  Nebbia  Neve Forte  Precipitazioni Forti  Vento > 20 kt
SIGMETs :   Varie  Temporali  Ghiacco  Turbolenza  Onda orograficha  Ceneri Vulcaniche






- Altitudine del aeroporto : 124 ft
- Codice IATA : RNS


LFRN - Rennes

ULTIMO METAR :
  • 211530Z AUTO 21013KT 9999 FEW035 11/04 Q1030 NOSIG

METARs OBSOLETI :
  • 211500Z AUTO 21011KT 180V240 9999 BKN037 11/04 Q1030 NOSIG
  • 211430Z AUTO 21011KT 9999 BKN037 11/04 Q1030 NOSIG
  • 211400Z AUTO 20010KT 170V230 9999 BKN036 BKN042 11/05 Q1030 NOSIG
  • 211330Z AUTO 19012KT 9999 SCT037 BKN220 11/05 Q1031 NOSIG
  • 211300Z AUTO 20010KT 9999 SCT034 10/05 Q1031 NOSIG

TAF TAF LFRN
Valido dal 21 a 12 ore il 22 a 12 ore UTC


211100Z 2112/2212 22010KT 9999 BKN035
TEMPO 2203/2208 BKN008
PROB30
TEMPO 2205/2212 22015G25KT
BECMG 2208/2210 BKN012
TEMPO 2210/2212 23015G25KT
ATIS : +33 2 99 67 72 50



MetMap, La meteo Aeronautica in un colpo d'occhio ! - Copyright ORBIFLY Dicembre 2007 - Disclaimer

ORBIFLY MET'MAP TEAM :

Programmazione e sviluppo : Alexandra Zaïnal
Concezione : Baudouin d'Aumeries
Aiuto per la programmazione : Marc-Olivier Méhu
Supporto tecnico e logistico : Manuel Goepfert
Aiuto per la traduzione : Arnaldo La Scala

Contatto : metmap@orbifly.com




FONTI E CREDITI :

   NOAA